sensor_id;sensor_type;location;lat;lon;timestamp;pressure;altitude;pressure_sealevel;temperature;humidity
25526;BME280;13424;48.424;11.258;2022-10-12T00:00:00;96241.53;;;15.59;82.40
25526;BME280;13424;48.424;11.258;2022-10-12T00:02:25;96239.88;;;15.53;83.08
25526;BME280;13424;48.424;11.258;2022-10-12T00:04:51;96244.03;;;15.39;83.80
25526;BME280;13424;48.424;11.258;2022-10-12T00:07:17;96238.31;;;15.57;83.21
25526;BME280;13424;48.424;11.258;2022-10-12T00:09:43;96244.91;;;15.45;83.66
25526;BME280;13424;48.424;11.258;2022-10-12T00:12:09;96235.84;;;15.56;83.13
25526;BME280;13424;48.424;11.258;2022-10-12T00:14:36;96236.78;;;15.40;83.78
25526;BME280;13424;48.424;11.258;2022-10-12T00:17:02;96234.47;;;14.99;85.63
25526;BME280;13424;48.424;11.258;2022-10-12T00:19:27;96237.84;;;15.39;83.78
25526;BME280;13424;48.424;11.258;2022-10-12T00:21:53;96238.66;;;15.39;83.88
25526;BME280;13424;48.424;11.258;2022-10-12T00:24:19;96233.44;;;15.27;84.43
25526;BME280;13424;48.424;11.258;2022-10-12T00:26:45;96234.34;;;15.38;84.08
25526;BME280;13424;48.424;11.258;2022-10-12T00:29:11;96237.94;;;15.22;85.04
25526;BME280;13424;48.424;11.258;2022-10-12T00:31:36;96234.34;;;15.38;84.44
25526;BME280;13424;48.424;11.258;2022-10-12T00:34:03;96238.28;;;15.30;84.60
25526;BME280;13424;48.424;11.258;2022-10-12T00:36:38;96241.16;;;14.97;86.35
25526;BME280;13424;48.424;11.258;2022-10-12T00:39:06;96228.19;;;15.16;86.29
25526;BME280;13424;48.424;11.258;2022-10-12T00:41:40;96229.00;;;15.16;85.63
25526;BME280;13424;48.424;11.258;2022-10-12T00:49:38;96234.69;;;15.47;84.47
25526;BME280;13424;48.424;11.258;2022-10-12T00:52:07;96226.84;;;15.67;83.58
25526;BME280;13424;48.424;11.258;2022-10-12T00:54:39;96227.50;;;15.25;84.90
25526;BME280;13424;48.424;11.258;2022-10-12T00:57:07;96217.50;;;15.21;85.54
25526;BME280;13424;48.424;11.258;2022-10-12T00:59:49;96224.13;;;15.40;84.81
25526;BME280;13424;48.424;11.258;2022-10-12T01:02:17;96226.94;;;15.23;85.16
25526;BME280;13424;48.424;11.258;2022-10-12T01:04:43;96229.84;;;15.44;84.57
25526;BME280;13424;48.424;11.258;2022-10-12T01:07:09;96229.97;;;15.32;84.90
25526;BME280;13424;48.424;11.258;2022-10-12T01:09:35;96235.22;;;15.44;84.34
25526;BME280;13424;48.424;11.258;2022-10-12T01:12:02;96237.19;;;15.26;85.19
25526;BME280;13424;48.424;11.258;2022-10-12T01:14:28;96235.16;;;15.39;84.36
25526;BME280;13424;48.424;11.258;2022-10-12T01:17:26;96231.84;;;15.58;83.64
25526;BME280;13424;48.424;11.258;2022-10-12T01:23:42;96234.31;;;15.33;84.30
25526;BME280;13424;48.424;11.258;2022-10-12T01:29:48;96235.03;;;15.55;83.28
25526;BME280;13424;48.424;11.258;2022-10-12T01:35:42;96229.88;;;15.22;84.56
25526;BME280;13424;48.424;11.258;2022-10-12T01:38:45;96233.34;;;15.44;83.16
25526;BME280;13424;48.424;11.258;2022-10-12T01:41:26;96234.66;;;15.42;83.05
25526;BME280;13424;48.424;11.258;2022-10-12T01:48:02;96231.75;;;15.21;83.70
25526;BME280;13424;48.424;11.258;2022-10-12T01:50:49;96230.59;;;15.12;83.92
25526;BME280;13424;48.424;11.258;2022-10-12T01:54:03;96229.97;;;15.05;84.39
25526;BME280;13424;48.424;11.258;2022-10-12T01:56:53;96225.28;;;15.17;83.92
25526;BME280;13424;48.424;11.258;2022-10-12T02:03:58;96225.50;;;14.89;85.08
25526;BME280;13424;48.424;11.258;2022-10-12T02:06:31;96219.97;;;15.00;84.46
25526;BME280;13424;48.424;11.258;2022-10-12T02:09:08;96217.00;;;14.97;84.58
25526;BME280;13424;48.424;11.258;2022-10-12T02:11:37;96220.72;;;15.18;83.12
25526;BME280;13424;48.424;11.258;2022-10-12T02:14:19;96223.38;;;14.91;83.59
25526;BME280;13424;48.424;11.258;2022-10-12T02:16:57;96213.94;;;14.66;84.52
25526;BME280;13424;48.424;11.258;2022-10-12T02:19:31;96206.84;;;14.16;87.89
25526;BME280;13424;48.424;11.258;2022-10-12T02:22:03;96210.63;;;14.20;87.79
25526;BME280;13424;48.424;11.258;2022-10-12T02:24:31;96209.34;;;14.45;86.09
25526;BME280;13424;48.424;11.258;2022-10-12T02:27:04;96210.94;;;14.41;85.50
25526;BME280;13424;48.424;11.258;2022-10-12T02:29:41;96207.50;;;14.45;85.01
25526;BME280;13424;48.424;11.258;2022-10-12T02:32:40;96212.53;;;14.59;83.46
25526;BME280;13424;48.424;11.258;2022-10-12T02:35:34;96209.22;;;14.51;82.89
25526;BME280;13424;48.424;11.258;2022-10-12T02:38:41;96205.41;;;14.69;83.14
25526;BME280;13424;48.424;11.258;2022-10-12T02:41:15;96213.63;;;14.85;83.36
25526;BME280;13424;48.424;11.258;2022-10-12T02:43:45;96209.84;;;14.80;83.55
25526;BME280;13424;48.424;11.258;2022-10-12T02:50:20;96210.56;;;14.76;83.86
25526;BME280;13424;48.424;11.258;2022-10-12T02:52:50;96207.59;;;14.72;84.35
25526;BME280;13424;48.424;11.258;2022-10-12T02:55:17;96214.94;;;14.82;83.97
25526;BME280;13424;48.424;11.258;2022-10-12T02:57:43;96214.66;;;14.78;84.51
25526;BME280;13424;48.424;11.258;2022-10-12T03:00:09;96208.25;;;14.85;84.42
25526;BME280;13424;48.424;11.258;2022-10-12T03:02:35;96203.22;;;14.88;83.85
25526;BME280;13424;48.424;11.258;2022-10-12T03:05:01;96208.03;;;14.86;83.87
25526;BME280;13424;48.424;11.258;2022-10-12T03:07:27;96210.81;;;14.96;83.36
25526;BME280;13424;48.424;11.258;2022-10-12T03:09:55;96209.91;;;14.86;83.98
25526;BME280;13424;48.424;11.258;2022-10-12T03:12:21;96206.16;;;14.87;84.38
25526;BME280;13424;48.424;11.258;2022-10-12T03:14:47;96211.44;;;14.82;84.23
25526;BME280;13424;48.424;11.258;2022-10-12T03:17:12;96215.44;;;15.01;83.66
25526;BME280;13424;48.424;11.258;2022-10-12T03:19:38;96211.69;;;15.02;83.97
25526;BME280;13424;48.424;11.258;2022-10-12T03:22:04;96211.53;;;14.87;84.29
25526;BME280;13424;48.424;11.258;2022-10-12T03:24:30;96214.22;;;14.87;84.55
25526;BME280;13424;48.424;11.258;2022-10-12T03:30:22;96214.03;;;14.93;84.60
25526;BME280;13424;48.424;11.258;2022-10-12T03:32:47;96216.47;;;15.00;83.92
25526;BME280;13424;48.424;11.258;2022-10-12T03:35:13;96218.13;;;15.01;83.79
25526;BME280;13424;48.424;11.258;2022-10-12T03:37:39;96217.72;;;15.14;83.03
25526;BME280;13424;48.424;11.258;2022-10-12T03:40:06;96222.13;;;14.76;85.07
25526;BME280;13424;48.424;11.258;2022-10-12T03:42:32;96214.59;;;14.35;87.37
25526;BME280;13424;48.424;11.258;2022-10-12T03:44:57;96219.56;;;14.87;84.79
25526;BME280;13424;48.424;11.258;2022-10-12T03:50:52;96214.75;;;14.89;84.34
25526;BME280;13424;48.424;11.258;2022-10-12T03:53:18;96220.03;;;14.78;84.74
25526;BME280;13424;48.424;11.258;2022-10-12T03:55:44;96216.38;;;14.29;86.86
25526;BME280;13424;48.424;11.258;2022-10-12T03:58:11;96216.63;;;14.66;84.90
25526;BME280;13424;48.424;11.258;2022-10-12T04:00:38;96222.88;;;14.50;86.14
25526;BME280;13424;48.424;11.258;2022-10-12T04:03:03;96222.53;;;14.63;85.62
25526;BME280;13424;48.424;11.258;2022-10-12T04:05:30;96217.25;;;14.73;84.73
25526;BME280;13424;48.424;11.258;2022-10-12T04:07:59;96224.59;;;14.78;84.47
25526;BME280;13424;48.424;11.258;2022-10-12T04:10:25;96220.50;;;14.75;84.74
25526;BME280;13424;48.424;11.258;2022-10-12T04:12:51;96218.97;;;14.79;84.61
25526;BME280;13424;48.424;11.258;2022-10-12T04:15:17;96221.13;;;14.83;84.63
25526;BME280;13424;48.424;11.258;2022-10-12T04:17:43;96218.44;;;14.83;84.48
25526;BME280;13424;48.424;11.258;2022-10-12T04:20:09;96218.31;;;14.94;84.26
25526;BME280;13424;48.424;11.258;2022-10-12T04:22:36;96229.53;;;14.91;84.23
25526;BME280;13424;48.424;11.258;2022-10-12T04:25:02;96225.00;;;14.92;84.46
25526;BME280;13424;48.424;11.258;2022-10-12T04:27:28;96221.75;;;14.90;84.46
25526;BME280;13424;48.424;11.258;2022-10-12T04:29:53;96220.66;;;14.86;83.94
25526;BME280;13424;48.424;11.258;2022-10-12T04:32:19;96221.22;;;14.93;83.81
25526;BME280;13424;48.424;11.258;2022-10-12T04:34:45;96218.25;;;14.67;84.78
25526;BME280;13424;48.424;11.258;2022-10-12T04:37:11;96225.31;;;14.73;84.64
25526;BME280;13424;48.424;11.258;2022-10-12T04:39:37;96225.44;;;14.84;83.97
25526;BME280;13424;48.424;11.258;2022-10-12T04:42:03;96223.84;;;14.44;86.24
25526;BME280;13424;48.424;11.258;2022-10-12T04:44:31;96226.56;;;14.66;85.52
25526;BME280;13424;48.424;11.258;2022-10-12T04:46:57;96229.19;;;14.61;85.52
25526;BME280;13424;48.424;11.258;2022-10-12T04:49:23;96224.56;;;14.56;85.96
25526;BME280;13424;48.424;11.258;2022-10-12T04:51:49;96224.00;;;14.37;87.14
25526;BME280;13424;48.424;11.258;2022-10-12T04:54:15;96225.22;;;14.63;86.12
25526;BME280;13424;48.424;11.258;2022-10-12T04:56:40;96232.31;;;14.74;85.74
25526;BME280;13424;48.424;11.258;2022-10-12T04:59:09;96229.34;;;14.32;87.93
25526;BME280;13424;48.424;11.258;2022-10-12T05:01:35;96230.19;;;14.55;86.52
25526;BME280;13424;48.424;11.258;2022-10-12T05:04:09;96236.56;;;14.48;87.38
25526;BME280;13424;48.424;11.258;2022-10-12T05:06:35;96235.47;;;13.94;89.64
25526;BME280;13424;48.424;11.258;2022-10-12T05:09:01;96237.88;;;14.46;87.60
25526;BME280;13424;48.424;11.258;2022-10-12T05:11:27;96236.41;;;14.21;88.34
25526;BME280;13424;48.424;11.258;2022-10-12T05:13:53;96232.94;;;14.43;87.13
25526;BME280;13424;48.424;11.258;2022-10-12T05:16:19;96229.75;;;14.63;86.92
25526;BME280;13424;48.424;11.258;2022-10-12T05:18:45;96234.94;;;14.69;86.20
25526;BME280;13424;48.424;11.258;2022-10-12T05:21:10;96234.31;;;14.62;86.56
25526;BME280;13424;48.424;11.258;2022-10-12T05:24:26;96234.13;;;14.91;85.24
25526;BME280;13424;48.424;11.258;2022-10-12T05:26:52;96232.81;;;14.93;84.93
25526;BME280;13424;48.424;11.258;2022-10-12T05:29:18;96243.41;;;15.05;84.47
25526;BME280;13424;48.424;11.258;2022-10-12T05:31:43;96246.09;;;14.61;86.33
25526;BME280;13424;48.424;11.258;2022-10-12T05:34:09;96240.09;;;13.82;90.55
25526;BME280;13424;48.424;11.258;2022-10-12T05:36:35;96244.56;;;14.10;89.46
25526;BME280;13424;48.424;11.258;2022-10-12T05:43:07;96246.91;;;14.23;88.28
25526;BME280;13424;48.424;11.258;2022-10-12T05:45:33;96248.69;;;13.50;91.21
25526;BME280;13424;48.424;11.258;2022-10-12T05:47:59;96251.69;;;14.21;89.38
25526;BME280;13424;48.424;11.258;2022-10-12T05:50:31;96247.50;;;14.64;86.96
25526;BME280;13424;48.424;11.258;2022-10-12T05:52:56;96256.59;;;14.85;85.51
25526;BME280;13424;48.424;11.258;2022-10-12T05:56:09;96256.28;;;14.81;85.71
25526;BME280;13424;48.424;11.258;2022-10-12T05:58:35;96247.53;;;14.69;86.07
25526;BME280;13424;48.424;11.258;2022-10-12T06:01:09;96247.88;;;14.72;85.93
25526;BME280;13424;48.424;11.258;2022-10-12T06:03:35;96253.88;;;14.79;85.79
25526;BME280;13424;48.424;11.258;2022-10-12T06:06:02;96261.59;;;14.98;85.01
25526;BME280;13424;48.424;11.258;2022-10-12T06:08:29;96256.53;;;15.01;85.11
25526;BME280;13424;48.424;11.258;2022-10-12T06:11:11;96263.09;;;14.89;85.66
25526;BME280;13424;48.424;11.258;2022-10-12T06:13:38;96260.63;;;14.27;89.32
25526;BME280;13424;48.424;11.258;2022-10-12T06:16:04;96262.09;;;14.95;86.29
25526;BME280;13424;48.424;11.258;2022-10-12T06:18:30;96260.22;;;14.73;86.71
25526;BME280;13424;48.424;11.258;2022-10-12T06:20:56;96256.72;;;14.95;86.26
25526;BME280;13424;48.424;11.258;2022-10-12T06:23:23;96263.41;;;14.92;86.88
25526;BME280;13424;48.424;11.258;2022-10-12T06:25:51;96268.28;;;15.17;85.48
25526;BME280;13424;48.424;11.258;2022-10-12T06:28:18;96266.59;;;15.11;85.27
25526;BME280;13424;48.424;11.258;2022-10-12T06:30:45;96271.00;;;15.22;84.68
25526;BME280;13424;48.424;11.258;2022-10-12T06:33:11;96264.97;;;15.10;85.84
25526;BME280;13424;48.424;11.258;2022-10-12T06:35:37;96274.59;;;14.84;86.72
25526;BME280;13424;48.424;11.258;2022-10-12T06:38:03;96270.81;;;15.07;85.55
25526;BME280;13424;48.424;11.258;2022-10-12T06:40:29;96267.69;;;15.15;86.02
25526;BME280;13424;48.424;11.258;2022-10-12T06:42:54;96268.88;;;15.24;84.72
25526;BME280;13424;48.424;11.258;2022-10-12T06:45:20;96270.06;;;15.33;84.95
25526;BME280;13424;48.424;11.258;2022-10-12T06:47:46;96274.34;;;14.86;86.45
25526;BME280;13424;48.424;11.258;2022-10-12T06:50:12;96273.50;;;15.07;86.29
25526;BME280;13424;48.424;11.258;2022-10-12T06:52:38;96275.44;;;15.33;84.67
25526;BME280;13424;48.424;11.258;2022-10-12T06:55:06;96282.72;;;15.38;85.13
25526;BME280;13424;48.424;11.258;2022-10-12T06:57:32;96284.66;;;15.43;85.02
25526;BME280;13424;48.424;11.258;2022-10-12T06:59:58;96274.78;;;15.48;85.14
25526;BME280;13424;48.424;11.258;2022-10-12T07:02:24;96281.16;;;15.64;84.17
25526;BME280;13424;48.424;11.258;2022-10-12T07:04:50;96277.81;;;15.57;83.94
25526;BME280;13424;48.424;11.258;2022-10-12T07:07:17;96282.00;;;15.70;83.42
25526;BME280;13424;48.424;11.258;2022-10-12T07:09:43;96287.25;;;15.59;83.89
25526;BME280;13424;48.424;11.258;2022-10-12T07:12:09;96285.03;;;15.51;85.13
25526;BME280;13424;48.424;11.258;2022-10-12T07:14:35;96288.28;;;15.80;83.50
25526;BME280;13424;48.424;11.258;2022-10-12T07:17:01;96286.28;;;15.66;84.96
25526;BME280;13424;48.424;11.258;2022-10-12T07:19:27;96283.13;;;15.25;85.84
25526;BME280;13424;48.424;11.258;2022-10-12T07:21:52;96287.09;;;15.71;83.93
25526;BME280;13424;48.424;11.258;2022-10-12T07:24:18;96288.34;;;15.36;86.04
25526;BME280;13424;48.424;11.258;2022-10-12T07:26:44;96299.06;;;15.85;84.19
25526;BME280;13424;48.424;11.258;2022-10-12T07:29:10;96295.31;;;15.86;84.39
25526;BME280;13424;48.424;11.258;2022-10-12T07:31:36;96300.00;;;15.96;84.27
25526;BME280;13424;48.424;11.258;2022-10-12T07:34:02;96296.50;;;16.01;83.23
25526;BME280;13424;48.424;11.258;2022-10-12T07:36:28;96298.06;;;15.91;84.37
25526;BME280;13424;48.424;11.258;2022-10-12T07:38:53;96304.63;;;16.06;84.11
25526;BME280;13424;48.424;11.258;2022-10-12T07:41:19;96304.66;;;16.11;84.16
25526;BME280;13424;48.424;11.258;2022-10-12T07:43:45;96310.50;;;16.03;83.99
25526;BME280;13424;48.424;11.258;2022-10-12T07:46:11;96312.69;;;15.74;85.15
25526;BME280;13424;48.424;11.258;2022-10-12T07:48:37;96310.44;;;15.93;84.59
25526;BME280;13424;48.424;11.258;2022-10-12T07:51:09;96311.22;;;16.20;83.31
25526;BME280;13424;48.424;11.258;2022-10-12T07:53:37;96300.34;;;16.10;83.26
25526;BME280;13424;48.424;11.258;2022-10-12T07:56:06;96304.28;;;16.29;82.91
25526;BME280;13424;48.424;11.258;2022-10-12T07:58:52;96304.59;;;16.38;82.27
25526;BME280;13424;48.424;11.258;2022-10-12T08:01:19;96299.63;;;16.19;83.04
25526;BME280;13424;48.424;11.258;2022-10-12T08:03:46;96307.81;;;15.98;82.93
25526;BME280;13424;48.424;11.258;2022-10-12T08:06:16;96302.13;;;16.31;82.42
25526;BME280;13424;48.424;11.258;2022-10-12T08:08:42;96306.78;;;16.04;84.00
25526;BME280;13424;48.424;11.258;2022-10-12T08:11:09;96307.47;;;16.26;82.57
25526;BME280;13424;48.424;11.258;2022-10-12T08:13:35;96311.31;;;16.35;82.57
25526;BME280;13424;48.424;11.258;2022-10-12T08:16:02;96310.03;;;15.79;84.29
25526;BME280;13424;48.424;11.258;2022-10-12T08:18:29;96308.47;;;16.15;83.81
25526;BME280;13424;48.424;11.258;2022-10-12T08:20:55;96316.34;;;16.22;83.20
25526;BME280;13424;48.424;11.258;2022-10-12T08:23:21;96310.34;;;16.14;81.14
25526;BME280;13424;48.424;11.258;2022-10-12T08:25:55;96310.75;;;16.33;81.15
25526;BME280;13424;48.424;11.258;2022-10-12T08:28:23;96311.94;;;16.47;81.54
25526;BME280;13424;48.424;11.258;2022-10-12T08:30:50;96316.06;;;16.60;80.88
25526;BME280;13424;48.424;11.258;2022-10-12T08:33:17;96318.38;;;16.84;79.78
25526;BME280;13424;48.424;11.258;2022-10-12T08:35:43;96316.69;;;16.72;79.94
25526;BME280;13424;48.424;11.258;2022-10-12T08:38:11;96315.56;;;17.16;78.76
25526;BME280;13424;48.424;11.258;2022-10-12T08:41:09;96318.19;;;17.06;78.86
25526;BME280;13424;48.424;11.258;2022-10-12T08:47:08;96319.53;;;16.56;79.99
25526;BME280;13424;48.424;11.258;2022-10-12T08:49:36;96315.56;;;17.21;79.17
25526;BME280;13424;48.424;11.258;2022-10-12T08:52:05;96312.56;;;17.07;79.69
25526;BME280;13424;48.424;11.258;2022-10-12T08:54:42;96310.72;;;17.18;78.99
25526;BME280;13424;48.424;11.258;2022-10-12T08:57:16;96309.38;;;17.15;78.68
25526;BME280;13424;48.424;11.258;2022-10-12T08:59:43;96308.56;;;17.15;78.53
25526;BME280;13424;48.424;11.258;2022-10-12T09:02:36;96310.72;;;17.18;78.25
25526;BME280;13424;48.424;11.258;2022-10-12T09:05:10;96308.03;;;17.18;79.99
25526;BME280;13424;48.424;11.258;2022-10-12T09:07:54;96311.31;;;17.30;78.07
25526;BME280;13424;48.424;11.258;2022-10-12T09:10:50;96315.22;;;17.85;75.74
25526;BME280;13424;48.424;11.258;2022-10-12T09:13:56;96314.69;;;17.78;76.52
25526;BME280;13424;48.424;11.258;2022-10-12T09:16:28;96318.19;;;17.73;75.59
25526;BME280;13424;48.424;11.258;2022-10-12T09:19:02;96314.53;;;17.37;76.58
25526;BME280;13424;48.424;11.258;2022-10-12T09:21:31;96316.22;;;17.58;76.30
25526;BME280;13424;48.424;11.258;2022-10-12T09:23:57;96327.94;;;18.05;75.29
25526;BME280;13424;48.424;11.258;2022-10-12T09:26:36;96325.94;;;17.54;76.30
25526;BME280;13424;48.424;11.258;2022-10-12T09:29:21;96328.06;;;17.47;76.45
25526;BME280;13424;48.424;11.258;2022-10-12T09:34:45;96329.78;;;17.74;76.19
25526;BME280;13424;48.424;11.258;2022-10-12T09:37:21;96327.50;;;17.30;77.87
25526;BME280;13424;48.424;11.258;2022-10-12T09:39:48;96328.94;;;17.63;76.45
25526;BME280;13424;48.424;11.258;2022-10-12T09:42:14;96330.22;;;17.50;76.87
25526;BME280;13424;48.424;11.258;2022-10-12T09:44:45;96330.22;;;17.45;77.00
25526;BME280;13424;48.424;11.258;2022-10-12T09:49:51;96331.94;;;17.82;76.89
25526;BME280;13424;48.424;11.258;2022-10-12T09:52:22;96333.03;;;17.81;76.59
25526;BME280;13424;48.424;11.258;2022-10-12T09:54:59;96328.91;;;17.68;76.92
25526;BME280;13424;48.424;11.258;2022-10-12T09:57:38;96328.44;;;17.81;76.83
25526;BME280;13424;48.424;11.258;2022-10-12T10:00:32;96327.63;;;17.71;76.90
25526;BME280;13424;48.424;11.258;2022-10-12T10:03:01;96318.66;;;17.55;78.06
25526;BME280;13424;48.424;11.258;2022-10-12T10:05:33;96328.06;;;17.42;77.90
25526;BME280;13424;48.424;11.258;2022-10-12T10:08:18;96320.72;;;17.27;78.21
25526;BME280;13424;48.424;11.258;2022-10-12T10:10:53;96319.97;;;17.52;77.78
25526;BME280;13424;48.424;11.258;2022-10-12T10:13:20;96326.22;;;17.63;77.76
25526;BME280;13424;48.424;11.258;2022-10-12T10:16:00;96316.50;;;16.89;79.65
25526;BME280;13424;48.424;11.258;2022-10-12T10:18:40;96320.44;;;17.24;79.71
25526;BME280;13424;48.424;11.258;2022-10-12T10:21:14;96316.50;;;17.57;78.12
25526;BME280;13424;48.424;11.258;2022-10-12T10:23:57;96324.16;;;17.85;77.21
25526;BME280;13424;48.424;11.258;2022-10-12T10:27:02;96326.50;;;17.62;77.58
25526;BME280;13424;48.424;11.258;2022-10-12T10:29:35;96335.03;;;17.33;78.37
25526;BME280;13424;48.424;11.258;2022-10-12T10:32:13;96322.75;;;17.73;77.15
25526;BME280;13424;48.424;11.258;2022-10-12T10:34:41;96319.72;;;16.86;79.39
25526;BME280;13424;48.424;11.258;2022-10-12T10:37:14;96324.94;;;17.81;75.94
25526;BME280;13424;48.424;11.258;2022-10-12T10:39:48;96324.66;;;17.72;76.79
25526;BME280;13424;48.424;11.258;2022-10-12T10:42:27;96323.31;;;17.85;76.68
25526;BME280;13424;48.424;11.258;2022-10-12T10:45:05;96325.88;;;17.44;77.67
25526;BME280;13424;48.424;11.258;2022-10-12T10:47:39;96326.50;;;17.67;76.57
25526;BME280;13424;48.424;11.258;2022-10-12T10:50:22;96321.16;;;17.82;76.74
25526;BME280;13424;48.424;11.258;2022-10-12T10:52:54;96322.25;;;17.86;76.41
25526;BME280;13424;48.424;11.258;2022-10-12T10:55:30;96327.91;;;17.84;77.56
25526;BME280;13424;48.424;11.258;2022-10-12T10:58:03;96325.25;;;18.25;75.94
25526;BME280;13424;48.424;11.258;2022-10-12T11:00:32;96324.53;;;17.42;78.63
25526;BME280;13424;48.424;11.258;2022-10-12T11:06:22;96325.22;;;17.90;76.42
25526;BME280;13424;48.424;11.258;2022-10-12T11:08:53;96321.19;;;18.12;74.84
25526;BME280;13424;48.424;11.258;2022-10-12T11:11:22;96318.47;;;18.07;75.57
25526;BME280;13424;48.424;11.258;2022-10-12T11:13:58;96313.09;;;18.28;74.79
25526;BME280;13424;48.424;11.258;2022-10-12T11:16:42;96308.75;;;18.22;74.91
25526;BME280;13424;48.424;11.258;2022-10-12T11:19:36;96298.50;;;18.34;74.69
25526;BME280;13424;48.424;11.258;2022-10-12T11:22:16;96298.50;;;18.44;74.19
25526;BME280;13424;48.424;11.258;2022-10-12T11:24:58;96300.66;;;18.37;74.32
25526;BME280;13424;48.424;11.258;2022-10-12T11:27:37;96297.41;;;18.50;74.10
25526;BME280;13424;48.424;11.258;2022-10-12T11:30:25;96302.03;;;18.04;74.99
25526;BME280;13424;48.424;11.258;2022-10-12T11:33:04;96297.41;;;17.99;75.23
25526;BME280;13424;48.424;11.258;2022-10-12T11:35:35;96296.88;;;17.82;75.81
25526;BME280;13424;48.424;11.258;2022-10-12T11:38:26;96282.78;;;17.54;76.92
25526;BME280;13424;48.424;11.258;2022-10-12T11:41:25;96288.81;;;18.02;75.69
25526;BME280;13424;48.424;11.258;2022-10-12T11:44:15;96286.34;;;18.41;74.34
25526;BME280;13424;48.424;11.258;2022-10-12T11:49:56;96293.34;;;18.53;74.25
25526;BME280;13424;48.424;11.258;2022-10-12T11:52:24;96296.34;;;18.41;74.58
25526;BME280;13424;48.424;11.258;2022-10-12T11:55:36;96289.56;;;18.69;73.87
25526;BME280;13424;48.424;11.258;2022-10-12T11:58:20;96286.56;;;18.76;73.55
25526;BME280;13424;48.424;11.258;2022-10-12T12:01:17;96283.34;;;18.53;74.15
25526;BME280;13424;48.424;11.258;2022-10-12T12:04:06;96278.00;;;18.28;75.13
25526;BME280;13424;48.424;11.258;2022-10-12T12:11:33;96265.00;;;18.45;73.75
25526;BME280;13424;48.424;11.258;2022-10-12T12:17:08;96277.19;;;17.81;76.51
25526;BME280;13424;48.424;11.258;2022-10-12T12:19:41;96272.63;;;18.02;74.80
25526;BME280;13424;48.424;11.258;2022-10-12T12:24:36;96263.91;;;18.51;73.74
25526;BME280;13424;48.424;11.258;2022-10-12T12:27:02;96266.09;;;18.08;75.01
25526;BME280;13424;48.424;11.258;2022-10-12T12:29:28;96266.59;;;18.46;73.73
25526;BME280;13424;48.424;11.258;2022-10-12T12:31:58;96257.47;;;17.91;75.92
25526;BME280;13424;48.424;11.258;2022-10-12T12:34:24;96259.66;;;18.09;75.30
25526;BME280;13424;48.424;11.258;2022-10-12T12:36:51;96257.22;;;18.03;74.97
25526;BME280;13424;48.424;11.258;2022-10-12T12:44:44;96260.94;;;18.53;73.51
25526;BME280;13424;48.424;11.258;2022-10-12T12:49:49;96263.53;;;19.48;71.66
25526;BME280;13424;48.424;11.258;2022-10-12T12:52:44;96262.66;;;19.13;70.85
25526;BME280;13424;48.424;11.258;2022-10-12T13:00:53;96264.22;;;19.19;70.72
25526;BME280;13424;48.424;11.258;2022-10-12T13:04:03;96256.00;;;19.45;69.80
25526;BME280;13424;48.424;11.258;2022-10-12T13:07:39;96257.94;;;18.75;71.28
25526;BME280;13424;48.424;11.258;2022-10-12T13:13:34;96258.56;;;18.10;73.20
25526;BME280;13424;48.424;11.258;2022-10-12T13:16:34;96261.06;;;19.07;71.29
25526;BME280;13424;48.424;11.258;2022-10-12T13:19:12;96260.88;;;18.83;73.00
25526;BME280;13424;48.424;11.258;2022-10-12T13:21:44;96262.06;;;19.21;70.65
25526;BME280;13424;48.424;11.258;2022-10-12T13:24:26;96260.09;;;18.62;72.24
25526;BME280;13424;48.424;11.258;2022-10-12T13:27:24;96250.66;;;19.30;71.21
25526;BME280;13424;48.424;11.258;2022-10-12T13:33:24;96250.94;;;18.58;72.39
25526;BME280;13424;48.424;11.258;2022-10-12T13:36:29;96247.84;;;19.01;71.56
25526;BME280;13424;48.424;11.258;2022-10-12T13:38:58;96250.41;;;18.46;72.38
25526;BME280;13424;48.424;11.258;2022-10-12T13:41:26;96244.81;;;19.12;71.74
25526;BME280;13424;48.424;11.258;2022-10-12T13:44:03;96252.19;;;19.46;70.35
25526;BME280;13424;48.424;11.258;2022-10-12T13:46:43;96235.91;;;19.12;71.08
25526;BME280;13424;48.424;11.258;2022-10-12T13:49:32;96237.66;;;19.37;70.15
25526;BME280;13424;48.424;11.258;2022-10-12T13:54:48;96236.13;;;19.15;70.48
25526;BME280;13424;48.424;11.258;2022-10-12T13:57:44;96233.84;;;18.83;71.92
25526;BME280;13424;48.424;11.258;2022-10-12T14:03:03;96231.50;;;18.66;72.72
25526;BME280;13424;48.424;11.258;2022-10-12T14:09:19;96229.94;;;19.15;70.79
25526;BME280;13424;48.424;11.258;2022-10-12T14:11:45;96229.53;;;18.77;73.21
25526;BME280;13424;48.424;11.258;2022-10-12T14:16:50;96222.28;;;18.73;73.14
25526;BME280;13424;48.424;11.258;2022-10-12T14:19:19;96227.13;;;18.76;72.74
25526;BME280;13424;48.424;11.258;2022-10-12T14:21:47;96221.22;;;18.53;72.82
25526;BME280;13424;48.424;11.258;2022-10-12T14:24:19;96222.81;;;18.69;72.43
25526;BME280;13424;48.424;11.258;2022-10-12T14:26:58;96222.28;;;18.67;72.28
25526;BME280;13424;48.424;11.258;2022-10-12T14:34:49;96228.22;;;18.69;73.32
25526;BME280;13424;48.424;11.258;2022-10-12T14:37:29;96220.94;;;18.60;73.64
25526;BME280;13424;48.424;11.258;2022-10-12T14:39:55;96217.47;;;18.49;73.39
25526;BME280;13424;48.424;11.258;2022-10-12T14:42:34;96219.66;;;18.42;73.64
25526;BME280;13424;48.424;11.258;2022-10-12T14:45:04;96219.59;;;18.67;73.11
25526;BME280;13424;48.424;11.258;2022-10-12T14:47:38;96212.69;;;18.00;75.66
25526;BME280;13424;48.424;11.258;2022-10-12T14:50:07;96206.72;;;18.19;75.44
25526;BME280;13424;48.424;11.258;2022-10-12T14:52:46;96212.69;;;18.10;76.07
25526;BME280;13424;48.424;11.258;2022-10-12T14:55:20;96216.16;;;18.16;75.72
25526;BME280;13424;48.424;11.258;2022-10-12T14:57:47;96205.66;;;18.20;74.83
25526;BME280;13424;48.424;11.258;2022-10-12T15:00:32;96206.16;;;18.32;74.47